sensor_id;sensor_type;location;lat;lon;timestamp;P1;durP1;ratioP1;P2;durP2;ratioP2
55210;SDS011;41082;52.822;6.666;2023-10-08T00:01:08;2.50;;;0.20;;
55210;SDS011;41082;52.822;6.666;2023-10-08T00:03:38;0.93;;;0.20;;
55210;SDS011;41082;52.822;6.666;2023-10-08T00:06:05;0.43;;;0.10;;
55210;SDS011;41082;52.822;6.666;2023-10-08T00:08:32;1.85;;;0.10;;
55210;SDS011;41082;52.822;6.666;2023-10-08T00:10:58;0.28;;;0.10;;
55210;SDS011;41082;52.822;6.666;2023-10-08T00:13:31;0.75;;;0.10;;
55210;SDS011;41082;52.822;6.666;2023-10-08T00:16:00;1.48;;;0.20;;
55210;SDS011;41082;52.822;6.666;2023-10-08T00:18:26;0.85;;;0.20;;
55210;SDS011;41082;52.822;6.666;2023-10-08T00:20:52;2.03;;;0.68;;
55210;SDS011;41082;52.822;6.666;2023-10-08T00:23:40;0.70;;;0.20;;
55210;SDS011;41082;52.822;6.666;2023-10-08T00:26:18;3.05;;;0.20;;
55210;SDS011;41082;52.822;6.666;2023-10-08T00:28:52;0.98;;;0.30;;
55210;SDS011;41082;52.822;6.666;2023-10-08T00:31:44;0.60;;;0.20;;
55210;SDS011;41082;52.822;6.666;2023-10-08T00:34:11;1.85;;;0.30;;
55210;SDS011;41082;52.822;6.666;2023-10-08T00:36:42;1.58;;;0.60;;
55210;SDS011;41082;52.822;6.666;2023-10-08T00:39:09;1.00;;;0.40;;
55210;SDS011;41082;52.822;6.666;2023-10-08T00:41:39;0.98;;;0.30;;
55210;SDS011;41082;52.822;6.666;2023-10-08T00:44:07;0.88;;;0.25;;
55210;SDS011;41082;52.822;6.666;2023-10-08T00:46:37;0.82;;;0.20;;
55210;SDS011;41082;52.822;6.666;2023-10-08T00:49:16;1.60;;;0.22;;
55210;SDS011;41082;52.822;6.666;2023-10-08T00:51:49;2.25;;;0.30;;
55210;SDS011;41082;52.822;6.666;2023-10-08T00:54:34;2.17;;;0.30;;
55210;SDS011;41082;52.822;6.666;2023-10-08T00:57:14;1.60;;;0.20;;
55210;SDS011;41082;52.822;6.666;2023-10-08T00:59:45;1.40;;;0.10;;
55210;SDS011;41082;52.822;6.666;2023-10-08T01:02:18;0.93;;;0.10;;
55210;SDS011;41082;52.822;6.666;2023-10-08T01:04:50;1.02;;;0.10;;
55210;SDS011;41082;52.822;6.666;2023-10-08T01:07:16;1.33;;;0.10;;
55210;SDS011;41082;52.822;6.666;2023-10-08T01:09:43;1.00;;;0.20;;
55210;SDS011;41082;52.822;6.666;2023-10-08T01:12:19;1.75;;;0.20;;
55210;SDS011;41082;52.822;6.666;2023-10-08T01:14:45;0.90;;;0.20;;
55210;SDS011;41082;52.822;6.666;2023-10-08T01:17:13;0.32;;;0.10;;
55210;SDS011;41082;52.822;6.666;2023-10-08T01:19:41;0.52;;;0.20;;
55210;SDS011;41082;52.822;6.666;2023-10-08T01:22:10;1.38;;;0.20;;
55210;SDS011;41082;52.822;6.666;2023-10-08T01:24:42;2.15;;;0.20;;
55210;SDS011;41082;52.822;6.666;2023-10-08T01:27:09;0.50;;;0.10;;
55210;SDS011;41082;52.822;6.666;2023-10-08T01:29:37;2.35;;;0.65;;
55210;SDS011;41082;52.822;6.666;2023-10-08T01:32:04;2.30;;;0.55;;
55210;SDS011;41082;52.822;6.666;2023-10-08T01:34:35;2.22;;;0.10;;
55210;SDS011;41082;52.822;6.666;2023-10-08T01:37:01;0.63;;;0.08;;
55210;SDS011;41082;52.822;6.666;2023-10-08T01:39:35;1.23;;;0.10;;
55210;SDS011;41082;52.822;6.666;2023-10-08T01:42:01;0.40;;;0.10;;
55210;SDS011;41082;52.822;6.666;2023-10-08T01:44:27;0.20;;;0.10;;
55210;SDS011;41082;52.822;6.666;2023-10-08T01:46:54;1.35;;;0.10;;
55210;SDS011;41082;52.822;6.666;2023-10-08T01:49:23;0.77;;;0.10;;
55210;SDS011;41082;52.822;6.666;2023-10-08T01:51:54;0.77;;;0.10;;
55210;SDS011;41082;52.822;6.666;2023-10-08T01:54:20;1.50;;;0.10;;
55210;SDS011;41082;52.822;6.666;2023-10-08T01:56:46;1.55;;;0.10;;
55210;SDS011;41082;52.822;6.666;2023-10-08T01:59:14;0.65;;;0.10;;
55210;SDS011;41082;52.822;6.666;2023-10-08T02:01:41;0.63;;;0.10;;
55210;SDS011;41082;52.822;6.666;2023-10-08T02:04:08;0.00;;;0.00;;
55210;SDS011;41082;52.822;6.666;2023-10-08T02:06:37;0.43;;;0.20;;
55210;SDS011;41082;52.822;6.666;2023-10-08T02:09:04;0.73;;;0.10;;
55210;SDS011;41082;52.822;6.666;2023-10-08T02:14:28;0.30;;;0.10;;
55210;SDS011;41082;52.822;6.666;2023-10-08T02:16:56;0.60;;;0.10;;
55210;SDS011;41082;52.822;6.666;2023-10-08T02:19:26;2.00;;;0.10;;
55210;SDS011;41082;52.822;6.666;2023-10-08T02:21:56;1.48;;;0.10;;
55210;SDS011;41082;52.822;6.666;2023-10-08T02:24:23;0.90;;;0.10;;
55210;SDS011;41082;52.822;6.666;2023-10-08T02:26:52;1.55;;;0.20;;
55210;SDS011;41082;52.822;6.666;2023-10-08T02:29:18;1.23;;;0.10;;
55210;SDS011;41082;52.822;6.666;2023-10-08T02:31:44;0.73;;;0.10;;
55210;SDS011;41082;52.822;6.666;2023-10-08T02:34:10;1.38;;;0.40;;
55210;SDS011;41082;52.822;6.666;2023-10-08T02:36:37;2.47;;;0.20;;
55210;SDS011;41082;52.822;6.666;2023-10-08T02:39:08;1.25;;;0.20;;
55210;SDS011;41082;52.822;6.666;2023-10-08T02:41:47;0.77;;;0.13;;
55210;SDS011;41082;52.822;6.666;2023-10-08T02:44:15;0.30;;;0.13;;
55210;SDS011;41082;52.822;6.666;2023-10-08T02:46:44;2.35;;;0.20;;
55210;SDS011;41082;52.822;6.666;2023-10-08T02:49:14;0.40;;;0.13;;
55210;SDS011;41082;52.822;6.666;2023-10-08T02:51:51;2.08;;;0.20;;
55210;SDS011;41082;52.822;6.666;2023-10-08T02:54:19;0.68;;;0.13;;
55210;SDS011;41082;52.822;6.666;2023-10-08T02:56:48;0.88;;;0.20;;
55210;SDS011;41082;52.822;6.666;2023-10-08T02:59:23;0.40;;;0.10;;
55210;SDS011;41082;52.822;6.666;2023-10-08T03:01:49;0.82;;;0.20;;
55210;SDS011;41082;52.822;6.666;2023-10-08T03:04:21;0.57;;;0.10;;
55210;SDS011;41082;52.822;6.666;2023-10-08T03:06:50;0.73;;;0.20;;
55210;SDS011;41082;52.822;6.666;2023-10-08T03:09:20;1.77;;;0.20;;
55210;SDS011;41082;52.822;6.666;2023-10-08T03:11:49;0.90;;;0.20;;
55210;SDS011;41082;52.822;6.666;2023-10-08T03:14:16;0.82;;;0.20;;
55210;SDS011;41082;52.822;6.666;2023-10-08T03:16:51;0.73;;;0.20;;
55210;SDS011;41082;52.822;6.666;2023-10-08T03:19:18;1.42;;;0.28;;
55210;SDS011;41082;52.822;6.666;2023-10-08T03:21:49;1.73;;;0.20;;
55210;SDS011;41082;52.822;6.666;2023-10-08T03:24:22;0.95;;;0.20;;
55210;SDS011;41082;52.822;6.666;2023-10-08T03:27:00;0.70;;;0.43;;
55210;SDS011;41082;52.822;6.666;2023-10-08T03:29:37;1.55;;;0.30;;
55210;SDS011;41082;52.822;6.666;2023-10-08T03:32:10;2.75;;;0.50;;
55210;SDS011;41082;52.822;6.666;2023-10-08T03:34:51;2.10;;;0.30;;
55210;SDS011;41082;52.822;6.666;2023-10-08T03:37:20;1.98;;;0.30;;
55210;SDS011;41082;52.822;6.666;2023-10-08T03:39:54;1.15;;;0.30;;
55210;SDS011;41082;52.822;6.666;2023-10-08T03:42:32;1.27;;;0.50;;
55210;SDS011;41082;52.822;6.666;2023-10-08T03:45:05;1.25;;;0.30;;
55210;SDS011;41082;52.822;6.666;2023-10-08T03:47:41;1.23;;;0.30;;
55210;SDS011;41082;52.822;6.666;2023-10-08T03:50:11;2.70;;;1.10;;
55210;SDS011;41082;52.822;6.666;2023-10-08T03:52:41;1.77;;;0.40;;
55210;SDS011;41082;52.822;6.666;2023-10-08T03:55:09;1.33;;;0.50;;
55210;SDS011;41082;52.822;6.666;2023-10-08T03:57:43;2.22;;;0.50;;
55210;SDS011;41082;52.822;6.666;2023-10-08T04:00:13;1.33;;;0.30;;
55210;SDS011;41082;52.822;6.666;2023-10-08T04:02:56;2.13;;;0.30;;
55210;SDS011;41082;52.822;6.666;2023-10-08T04:05:26;1.88;;;0.63;;
55210;SDS011;41082;52.822;6.666;2023-10-08T04:08:09;1.67;;;0.40;;
55210;SDS011;41082;52.822;6.666;2023-10-08T04:11:00;2.25;;;0.40;;
55210;SDS011;41082;52.822;6.666;2023-10-08T04:13:47;2.13;;;0.40;;
55210;SDS011;41082;52.822;6.666;2023-10-08T04:16:13;0.80;;;0.45;;
55210;SDS011;41082;52.822;6.666;2023-10-08T04:18:44;0.80;;;0.30;;
55210;SDS011;41082;52.822;6.666;2023-10-08T04:21:11;1.92;;;0.40;;
55210;SDS011;41082;52.822;6.666;2023-10-08T04:23:38;3.45;;;0.40;;
55210;SDS011;41082;52.822;6.666;2023-10-08T04:26:05;1.75;;;0.45;;
55210;SDS011;41082;52.822;6.666;2023-10-08T04:28:31;1.42;;;0.40;;
55210;SDS011;41082;52.822;6.666;2023-10-08T04:31:00;2.03;;;0.38;;
55210;SDS011;41082;52.822;6.666;2023-10-08T04:33:39;2.22;;;0.30;;
55210;SDS011;41082;52.822;6.666;2023-10-08T04:36:06;2.80;;;0.20;;
55210;SDS011;41082;52.822;6.666;2023-10-08T04:38:32;1.52;;;0.20;;
55210;SDS011;41082;52.822;6.666;2023-10-08T04:41:04;2.80;;;0.30;;
55210;SDS011;41082;52.822;6.666;2023-10-08T04:43:34;1.70;;;0.30;;
55210;SDS011;41082;52.822;6.666;2023-10-08T04:46:03;0.43;;;0.10;;
55210;SDS011;41082;52.822;6.666;2023-10-08T04:48:47;0.40;;;0.20;;
55210;SDS011;41082;52.822;6.666;2023-10-08T04:51:16;1.48;;;0.20;;
55210;SDS011;41082;52.822;6.666;2023-10-08T04:53:43;4.93;;;0.77;;
55210;SDS011;41082;52.822;6.666;2023-10-08T04:56:11;2.63;;;0.32;;
55210;SDS011;41082;52.822;6.666;2023-10-08T04:58:48;2.50;;;0.20;;
55210;SDS011;41082;52.822;6.666;2023-10-08T05:01:14;2.45;;;0.20;;
55210;SDS011;41082;52.822;6.666;2023-10-08T05:03:55;1.23;;;0.20;;
55210;SDS011;41082;52.822;6.666;2023-10-08T05:06:22;1.98;;;0.20;;
55210;SDS011;41082;52.822;6.666;2023-10-08T05:09:03;5.13;;;0.68;;
55210;SDS011;41082;52.822;6.666;2023-10-08T05:11:46;4.13;;;0.30;;
55210;SDS011;41082;52.822;6.666;2023-10-08T05:14:17;3.70;;;0.20;;
55210;SDS011;41082;52.822;6.666;2023-10-08T05:17:01;2.20;;;0.20;;
55210;SDS011;41082;52.822;6.666;2023-10-08T05:19:34;3.45;;;0.25;;
55210;SDS011;41082;52.822;6.666;2023-10-08T05:22:07;4.40;;;0.20;;
55210;SDS011;41082;52.822;6.666;2023-10-08T05:24:49;3.17;;;0.32;;
55210;SDS011;41082;52.822;6.666;2023-10-08T05:27:35;4.13;;;0.63;;
55210;SDS011;41082;52.822;6.666;2023-10-08T05:30:03;2.50;;;0.20;;
55210;SDS011;41082;52.822;6.666;2023-10-08T05:32:40;2.67;;;0.10;;
55210;SDS011;41082;52.822;6.666;2023-10-08T05:35:29;2.95;;;0.20;;
55210;SDS011;41082;52.822;6.666;2023-10-08T05:38:03;1.95;;;0.20;;
55210;SDS011;41082;52.822;6.666;2023-10-08T05:40:39;2.35;;;0.20;;
55210;SDS011;41082;52.822;6.666;2023-10-08T05:43:35;2.25;;;0.20;;
55210;SDS011;41082;52.822;6.666;2023-10-08T05:46:05;3.55;;;0.22;;
55210;SDS011;41082;52.822;6.666;2023-10-08T05:48:53;5.03;;;0.30;;
55210;SDS011;41082;52.822;6.666;2023-10-08T05:51:27;3.00;;;0.22;;
55210;SDS011;41082;52.822;6.666;2023-10-08T05:54:19;1.30;;;0.20;;
55210;SDS011;41082;52.822;6.666;2023-10-08T05:56:55;8.55;;;0.77;;
55210;SDS011;41082;52.822;6.666;2023-10-08T05:59:47;3.40;;;0.30;;
55210;SDS011;41082;52.822;6.666;2023-10-08T06:05:13;4.03;;;0.20;;
55210;SDS011;41082;52.822;6.666;2023-10-08T06:10:20;3.63;;;0.43;;
55210;SDS011;41082;52.822;6.666;2023-10-08T06:15:41;1.73;;;0.30;;
55210;SDS011;41082;52.822;6.666;2023-10-08T06:18:27;7.47;;;0.52;;
55210;SDS011;41082;52.822;6.666;2023-10-08T06:20:54;5.05;;;0.55;;
55210;SDS011;41082;52.822;6.666;2023-10-08T06:23:24;3.63;;;0.30;;
55210;SDS011;41082;52.822;6.666;2023-10-08T06:25:51;5.20;;;0.20;;
55210;SDS011;41082;52.822;6.666;2023-10-08T06:28:23;2.45;;;0.20;;
55210;SDS011;41082;52.822;6.666;2023-10-08T06:30:51;5.90;;;0.25;;
55210;SDS011;41082;52.822;6.666;2023-10-08T06:33:19;2.47;;;0.10;;
55210;SDS011;41082;52.822;6.666;2023-10-08T06:35:50;3.05;;;0.28;;
55210;SDS011;41082;52.822;6.666;2023-10-08T06:38:30;2.88;;;0.20;;
55210;SDS011;41082;52.822;6.666;2023-10-08T06:41:01;1.55;;;0.20;;
55210;SDS011;41082;52.822;6.666;2023-10-08T06:43:40;3.30;;;0.25;;
55210;SDS011;41082;52.822;6.666;2023-10-08T06:46:29;2.00;;;0.20;;
55210;SDS011;41082;52.822;6.666;2023-10-08T06:48:59;5.07;;;0.50;;
55210;SDS011;41082;52.822;6.666;2023-10-08T06:51:28;2.03;;;0.50;;
55210;SDS011;41082;52.822;6.666;2023-10-08T06:53:55;2.33;;;0.43;;
55210;SDS011;41082;52.822;6.666;2023-10-08T06:56:25;3.22;;;0.43;;
55210;SDS011;41082;52.822;6.666;2023-10-08T06:58:50;4.30;;;0.63;;
55210;SDS011;41082;52.822;6.666;2023-10-08T07:01:19;2.50;;;0.30;;
55210;SDS011;41082;52.822;6.666;2023-10-08T07:03:52;2.08;;;0.43;;
55210;SDS011;41082;52.822;6.666;2023-10-08T07:06:21;2.85;;;0.50;;
55210;SDS011;41082;52.822;6.666;2023-10-08T07:09:02;2.08;;;0.40;;
55210;SDS011;41082;52.822;6.666;2023-10-08T07:11:32;4.78;;;0.80;;
55210;SDS011;41082;52.822;6.666;2023-10-08T07:14:04;3.72;;;0.50;;
55210;SDS011;41082;52.822;6.666;2023-10-08T07:16:31;2.22;;;0.50;;
55210;SDS011;41082;52.822;6.666;2023-10-08T07:18:57;5.70;;;0.63;;
55210;SDS011;41082;52.822;6.666;2023-10-08T07:21:40;2.88;;;0.40;;
55210;SDS011;41082;52.822;6.666;2023-10-08T07:24:15;3.45;;;0.47;;
55210;SDS011;41082;52.822;6.666;2023-10-08T07:26:41;2.65;;;0.85;;
55210;SDS011;41082;52.822;6.666;2023-10-08T07:29:11;5.40;;;0.52;;
55210;SDS011;41082;52.822;6.666;2023-10-08T07:31:41;3.63;;;0.40;;
55210;SDS011;41082;52.822;6.666;2023-10-08T07:34:08;5.22;;;0.30;;
55210;SDS011;41082;52.822;6.666;2023-10-08T07:36:49;1.95;;;0.30;;
55210;SDS011;41082;52.822;6.666;2023-10-08T07:39:20;4.13;;;0.40;;
55210;SDS011;41082;52.822;6.666;2023-10-08T07:42:06;3.65;;;0.70;;
55210;SDS011;41082;52.822;6.666;2023-10-08T07:44:33;9.10;;;0.65;;
55210;SDS011;41082;52.822;6.666;2023-10-08T07:47:03;3.28;;;0.50;;
55210;SDS011;41082;52.822;6.666;2023-10-08T07:49:31;4.45;;;0.88;;
55210;SDS011;41082;52.822;6.666;2023-10-08T07:51:57;4.15;;;0.50;;
55210;SDS011;41082;52.822;6.666;2023-10-08T07:54:24;4.90;;;0.52;;
55210;SDS011;41082;52.822;6.666;2023-10-08T07:56:53;2.97;;;0.63;;
55210;SDS011;41082;52.822;6.666;2023-10-08T07:59:33;2.20;;;0.50;;
55210;SDS011;41082;52.822;6.666;2023-10-08T08:02:05;3.88;;;0.38;;
55210;SDS011;41082;52.822;6.666;2023-10-08T08:04:35;4.80;;;0.50;;
55210;SDS011;41082;52.822;6.666;2023-10-08T08:07:01;3.75;;;1.00;;
55210;SDS011;41082;52.822;6.666;2023-10-08T08:09:29;3.45;;;0.55;;
55210;SDS011;41082;52.822;6.666;2023-10-08T08:11:55;6.82;;;0.50;;
55210;SDS011;41082;52.822;6.666;2023-10-08T08:14:22;6.65;;;0.43;;
55210;SDS011;41082;52.822;6.666;2023-10-08T08:16:50;2.55;;;0.60;;
55210;SDS011;41082;52.822;6.666;2023-10-08T08:19:16;2.75;;;0.60;;
55210;SDS011;41082;52.822;6.666;2023-10-08T08:21:49;4.93;;;0.65;;
55210;SDS011;41082;52.822;6.666;2023-10-08T08:24:17;5.65;;;0.40;;
55210;SDS011;41082;52.822;6.666;2023-10-08T08:26:54;8.20;;;0.90;;
55210;SDS011;41082;52.822;6.666;2023-10-08T08:29:33;5.25;;;0.50;;
55210;SDS011;41082;52.822;6.666;2023-10-08T08:32:09;3.03;;;0.30;;
55210;SDS011;41082;52.822;6.666;2023-10-08T08:34:41;3.25;;;0.40;;
55210;SDS011;41082;52.822;6.666;2023-10-08T08:37:12;6.13;;;0.50;;
55210;SDS011;41082;52.822;6.666;2023-10-08T08:39:38;9.20;;;0.93;;
55210;SDS011;41082;52.822;6.666;2023-10-08T08:42:06;5.75;;;0.47;;
55210;SDS011;41082;52.822;6.666;2023-10-08T08:44:35;3.67;;;0.47;;
55210;SDS011;41082;52.822;6.666;2023-10-08T08:47:10;2.97;;;0.30;;
55210;SDS011;41082;52.822;6.666;2023-10-08T08:49:39;3.38;;;0.40;;
55210;SDS011;41082;52.822;6.666;2023-10-08T08:52:07;2.30;;;0.40;;
55210;SDS011;41082;52.822;6.666;2023-10-08T08:54:32;6.93;;;0.68;;
55210;SDS011;41082;52.822;6.666;2023-10-08T08:57:02;5.95;;;0.50;;
55210;SDS011;41082;52.822;6.666;2023-10-08T08:59:38;5.50;;;0.40;;
55210;SDS011;41082;52.822;6.666;2023-10-08T09:02:11;4.90;;;0.50;;
55210;SDS011;41082;52.822;6.666;2023-10-08T09:04:39;5.78;;;0.50;;
55210;SDS011;41082;52.822;6.666;2023-10-08T09:07:04;6.25;;;0.47;;
55210;SDS011;41082;52.822;6.666;2023-10-08T09:09:30;4.88;;;0.35;;
55210;SDS011;41082;52.822;6.666;2023-10-08T09:11:57;4.80;;;1.50;;
55210;SDS011;41082;52.822;6.666;2023-10-08T09:14:26;8.15;;;0.68;;
55210;SDS011;41082;52.822;6.666;2023-10-08T09:16:55;6.65;;;0.45;;
55210;SDS011;41082;52.822;6.666;2023-10-08T09:19:22;7.47;;;0.52;;
55210;SDS011;41082;52.822;6.666;2023-10-08T09:24:29;7.68;;;0.50;;
55210;SDS011;41082;52.822;6.666;2023-10-08T09:27:08;6.82;;;0.98;;
55210;SDS011;41082;52.822;6.666;2023-10-08T09:29:39;9.07;;;2.28;;
55210;SDS011;41082;52.822;6.666;2023-10-08T09:32:07;6.15;;;0.85;;
55210;SDS011;41082;52.822;6.666;2023-10-08T09:34:34;7.63;;;0.88;;
55210;SDS011;41082;52.822;6.666;2023-10-08T09:37:01;6.18;;;0.65;;
55210;SDS011;41082;52.822;6.666;2023-10-08T09:39:28;4.93;;;0.40;;
55210;SDS011;41082;52.822;6.666;2023-10-08T09:41:59;6.65;;;0.50;;
55210;SDS011;41082;52.822;6.666;2023-10-08T09:44:28;7.07;;;0.77;;
55210;SDS011;41082;52.822;6.666;2023-10-08T09:47:04;5.80;;;0.70;;
55210;SDS011;41082;52.822;6.666;2023-10-08T09:49:39;4.07;;;0.40;;
55210;SDS011;41082;52.822;6.666;2023-10-08T09:52:09;5.55;;;0.40;;
55210;SDS011;41082;52.822;6.666;2023-10-08T09:54:43;7.15;;;0.60;;
55210;SDS011;41082;52.822;6.666;2023-10-08T09:57:12;4.50;;;0.52;;
55210;SDS011;41082;52.822;6.666;2023-10-08T09:59:39;6.07;;;0.50;;
55210;SDS011;41082;52.822;6.666;2023-10-08T10:02:06;8.73;;;0.73;;
55210;SDS011;41082;52.822;6.666;2023-10-08T10:04:35;4.43;;;0.50;;
55210;SDS011;41082;52.822;6.666;2023-10-08T10:07:08;4.20;;;0.60;;
55210;SDS011;41082;52.822;6.666;2023-10-08T10:09:37;7.75;;;0.80;;
55210;SDS011;41082;52.822;6.666;2023-10-08T10:12:05;5.57;;;0.40;;
55210;SDS011;41082;52.822;6.666;2023-10-08T10:14:41;6.80;;;0.60;;
55210;SDS011;41082;52.822;6.666;2023-10-08T10:17:28;6.60;;;0.70;;
55210;SDS011;41082;52.822;6.666;2023-10-08T10:22:27;6.35;;;0.73;;
55210;SDS011;41082;52.822;6.666;2023-10-08T10:25:01;6.75;;;0.82;;
55210;SDS011;41082;52.822;6.666;2023-10-08T10:30:20;4.70;;;0.57;;
55210;SDS011;41082;52.822;6.666;2023-10-08T10:32:48;5.63;;;0.60;;
55210;SDS011;41082;52.822;6.666;2023-10-08T10:35:16;8.32;;;0.60;;
55210;SDS011;41082;52.822;6.666;2023-10-08T10:37:46;8.45;;;0.52;;
55210;SDS011;41082;52.822;6.666;2023-10-08T10:40:22;5.28;;;0.70;;
55210;SDS011;41082;52.822;6.666;2023-10-08T10:43:04;8.27;;;0.82;;
55210;SDS011;41082;52.822;6.666;2023-10-08T10:45:31;8.52;;;0.93;;
55210;SDS011;41082;52.822;6.666;2023-10-08T10:48:15;8.75;;;0.60;;
55210;SDS011;41082;52.822;6.666;2023-10-08T10:50:45;8.52;;;1.15;;
55210;SDS011;41082;52.822;6.666;2023-10-08T10:53:38;7.47;;;0.68;;
55210;SDS011;41082;52.822;6.666;2023-10-08T10:56:13;11.80;;;0.93;;
55210;SDS011;41082;52.822;6.666;2023-10-08T10:58:58;4.57;;;0.40;;
55210;SDS011;41082;52.822;6.666;2023-10-08T11:01:27;3.95;;;0.50;;
55210;SDS011;41082;52.822;6.666;2023-10-08T11:03:55;6.55;;;0.75;;
55210;SDS011;41082;52.822;6.666;2023-10-08T11:06:22;7.20;;;0.57;;
55210;SDS011;41082;52.822;6.666;2023-10-08T11:08:50;4.68;;;0.63;;
55210;SDS011;41082;52.822;6.666;2023-10-08T11:11:26;5.13;;;0.60;;
55210;SDS011;41082;52.822;6.666;2023-10-08T11:13:59;5.13;;;0.45;;
55210;SDS011;41082;52.822;6.666;2023-10-08T11:16:25;7.60;;;0.80;;
55210;SDS011;41082;52.822;6.666;2023-10-08T11:18:56;3.38;;;0.50;;
55210;SDS011;41082;52.822;6.666;2023-10-08T11:21:31;7.38;;;0.52;;
55210;SDS011;41082;52.822;6.666;2023-10-08T11:23:59;5.00;;;0.40;;
55210;SDS011;41082;52.822;6.666;2023-10-08T11:26:26;7.85;;;0.90;;
55210;SDS011;41082;52.822;6.666;2023-10-08T11:29:04;6.82;;;0.43;;
55210;SDS011;41082;52.822;6.666;2023-10-08T11:31:31;4.68;;;0.47;;
55210;SDS011;41082;52.822;6.666;2023-10-08T11:34:00;6.95;;;0.50;;
55210;SDS011;41082;52.822;6.666;2023-10-08T11:36:27;4.72;;;0.47;;
55210;SDS011;41082;52.822;6.666;2023-10-08T11:38:54;7.97;;;0.50;;
55210;SDS011;41082;52.822;6.666;2023-10-08T11:41:26;5.95;;;0.57;;
55210;SDS011;41082;52.822;6.666;2023-10-08T11:43:53;3.58;;;0.35;;
55210;SDS011;41082;52.822;6.666;2023-10-08T11:46:24;5.47;;;0.50;;
55210;SDS011;41082;52.822;6.666;2023-10-08T11:49:06;6.50;;;0.82;;
55210;SDS011;41082;52.822;6.666;2023-10-08T11:51:32;5.22;;;0.63;;
55210;SDS011;41082;52.822;6.666;2023-10-08T11:54:02;6.20;;;0.85;;
55210;SDS011;41082;52.822;6.666;2023-10-08T11:56:31;4.88;;;0.60;;
55210;SDS011;41082;52.822;6.666;2023-10-08T11:58:58;8.18;;;0.73;;
55210;SDS011;41082;52.822;6.666;2023-10-08T12:01:30;5.40;;;0.50;;
55210;SDS011;41082;52.822;6.666;2023-10-08T12:04:00;5.28;;;0.50;;
55210;SDS011;41082;52.822;6.666;2023-10-08T12:06:26;5.53;;;0.60;;
55210;SDS011;41082;52.822;6.666;2023-10-08T12:08:55;6.85;;;0.60;;
55210;SDS011;41082;52.822;6.666;2023-10-08T12:11:23;5.60;;;0.40;;
55210;SDS011;41082;52.822;6.666;2023-10-08T12:13:56;7.55;;;0.63;;
55210;SDS011;41082;52.822;6.666;2023-10-08T12:16:25;2.95;;;0.30;;
55210;SDS011;41082;52.822;6.666;2023-10-08T12:18:54;4.60;;;0.60;;
55210;SDS011;41082;52.822;6.666;2023-10-08T12:21:30;6.88;;;0.70;;
55210;SDS011;41082;52.822;6.666;2023-10-08T12:23:56;7.22;;;1.17;;
55210;SDS011;41082;52.822;6.666;2023-10-08T12:26:30;4.00;;;0.45;;
55210;SDS011;41082;52.822;6.666;2023-10-08T12:28:56;4.40;;;0.30;;
55210;SDS011;41082;52.822;6.666;2023-10-08T12:31:22;9.82;;;1.00;;
55210;SDS011;41082;52.822;6.666;2023-10-08T12:33:49;5.18;;;0.63;;
55210;SDS011;41082;52.822;6.666;2023-10-08T12:36:25;8.50;;;0.90;;
55210;SDS011;41082;52.822;6.666;2023-10-08T12:38:57;4.65;;;0.50;;
55210;SDS011;41082;52.822;6.666;2023-10-08T12:41:24;5.72;;;0.50;;
55210;SDS011;41082;52.822;6.666;2023-10-08T12:43:53;6.05;;;0.75;;
55210;SDS011;41082;52.822;6.666;2023-10-08T12:46:21;7.20;;;0.60;;
55210;SDS011;41082;52.822;6.666;2023-10-08T12:48:51;7.18;;;0.82;;
55210;SDS011;41082;52.822;6.666;2023-10-08T12:51:20;8.75;;;0.68;;
55210;SDS011;41082;52.822;6.666;2023-10-08T12:53:50;9.60;;;0.70;;
55210;SDS011;41082;52.822;6.666;2023-10-08T12:56:23;3.47;;;0.73;;
55210;SDS011;41082;52.822;6.666;2023-10-08T12:58:57;4.18;;;0.80;;
55210;SDS011;41082;52.822;6.666;2023-10-08T13:01:23;3.25;;;0.80;;
55210;SDS011;41082;52.822;6.666;2023-10-08T13:03:53;11.50;;;0.50;;
55210;SDS011;41082;52.822;6.666;2023-10-08T13:06:24;7.00;;;0.60;;
55210;SDS011;41082;52.822;6.666;2023-10-08T13:08:54;4.93;;;0.65;;
55210;SDS011;41082;52.822;6.666;2023-10-08T13:11:24;5.72;;;0.60;;
55210;SDS011;41082;52.822;6.666;2023-10-08T13:13:51;6.75;;;0.40;;
55210;SDS011;41082;52.822;6.666;2023-10-08T13:16:18;6.88;;;0.68;;
55210;SDS011;41082;52.822;6.666;2023-10-08T13:18:46;6.35;;;0.60;;
55210;SDS011;41082;52.822;6.666;2023-10-08T13:21:12;6.05;;;0.88;;
55210;SDS011;41082;52.822;6.666;2023-10-08T13:23:38;7.13;;;1.17;;
55210;SDS011;41082;52.822;6.666;2023-10-08T13:26:05;6.82;;;0.52;;
55210;SDS011;41082;52.822;6.666;2023-10-08T13:28:32;4.57;;;0.40;;
55210;SDS011;41082;52.822;6.666;2023-10-08T13:31:08;4.88;;;0.88;;
55210;SDS011;41082;52.822;6.666;2023-10-08T13:33:40;4.63;;;0.80;;
55210;SDS011;41082;52.822;6.666;2023-10-08T13:36:14;7.40;;;0.50;;
55210;SDS011;41082;52.822;6.666;2023-10-08T13:38:40;6.18;;;0.63;;
55210;SDS011;41082;52.822;6.666;2023-10-08T13:41:06;3.42;;;0.35;;
55210;SDS011;41082;52.822;6.666;2023-10-08T13:43:52;6.05;;;0.68;;
55210;SDS011;41082;52.822;6.666;2023-10-08T13:46:18;6.35;;;1.02;;
55210;SDS011;41082;52.822;6.666;2023-10-08T13:48:47;5.05;;;0.47;;
55210;SDS011;41082;52.822;6.666;2023-10-08T13:51:15;5.82;;;0.40;;
55210;SDS011;41082;52.822;6.666;2023-10-08T13:56:17;5.55;;;0.47;;
55210;SDS011;41082;52.822;6.666;2023-10-08T13:58:45;6.63;;;0.63;;
55210;SDS011;41082;52.822;6.666;2023-10-08T14:01:14;4.63;;;0.40;;
55210;SDS011;41082;52.822;6.666;2023-10-08T14:03:49;9.77;;;0.50;;
55210;SDS011;41082;52.822;6.666;2023-10-08T14:06:21;4.40;;;0.50;;
55210;SDS011;41082;52.822;6.666;2023-10-08T14:08:47;4.25;;;0.63;;
55210;SDS011;41082;52.822;6.666;2023-10-08T14:11:22;4.88;;;0.43;;
55210;SDS011;41082;52.822;6.666;2023-10-08T14:13:55;5.35;;;0.40;;
55210;SDS011;41082;52.822;6.666;2023-10-08T14:16:27;6.15;;;0.43;;
55210;SDS011;41082;52.822;6.666;2023-10-08T14:18:57;3.90;;;0.30;;
55210;SDS011;41082;52.822;6.666;2023-10-08T14:21:25;6.63;;;0.50;;
55210;SDS011;41082;52.822;6.666;2023-10-08T14:23:58;5.25;;;0.57;;
55210;SDS011;41082;52.822;6.666;2023-10-08T14:26:28;5.07;;;0.40;;
55210;SDS011;41082;52.822;6.666;2023-10-08T14:29:01;4.68;;;0.60;;
55210;SDS011;41082;52.822;6.666;2023-10-08T14:31:36;4.97;;;0.30;;
55210;SDS011;41082;52.822;6.666;2023-10-08T14:34:07;5.63;;;1.40;;
55210;SDS011;41082;52.822;6.666;2023-10-08T14:36:45;7.75;;;0.90;;
55210;SDS011;41082;52.822;6.666;2023-10-08T14:39:33;7.45;;;0.45;;
55210;SDS011;41082;52.822;6.666;2023-10-08T14:42:18;5.15;;;0.57;;
55210;SDS011;41082;52.822;6.666;2023-10-08T14:45:03;7.90;;;0.68;;
55210;SDS011;41082;52.822;6.666;2023-10-08T14:47:36;2.85;;;0.35;;
55210;SDS011;41082;52.822;6.666;2023-10-08T14:50:02;5.47;;;0.80;;
55210;SDS011;41082;52.822;6.666;2023-10-08T14:52:30;4.57;;;0.80;;
55210;SDS011;41082;52.822;6.666;2023-10-08T14:54:56;5.07;;;0.60;;
55210;SDS011;41082;52.822;6.666;2023-10-08T14:57:22;3.67;;;0.32;;
55210;SDS011;41082;52.822;6.666;2023-10-08T14:59:49;3.88;;;0.40;;
55210;SDS011;41082;52.822;6.666;2023-10-08T15:02:16;4.28;;;0.63;;
55210;SDS011;41082;52.822;6.666;2023-10-08T15:04:42;7.47;;;0.55;;
55210;SDS011;41082;52.822;6.666;2023-10-08T15:07:09;6.25;;;0.65;;
55210;SDS011;41082;52.822;6.666;2023-10-08T15:09:43;4.40;;;0.60;;
55210;SDS011;41082;52.822;6.666;2023-10-08T15:12:09;4.38;;;0.40;;
55210;SDS011;41082;52.822;6.666;2023-10-08T15:14:35;4.53;;;0.40;;
55210;SDS011;41082;52.822;6.666;2023-10-08T15:17:03;4.35;;;0.70;;
55210;SDS011;41082;52.822;6.666;2023-10-08T15:19:30;3.67;;;0.40;;
55210;SDS011;41082;52.822;6.666;2023-10-08T15:21:56;3.25;;;0.40;;
55210;SDS011;41082;52.822;6.666;2023-10-08T15:24:23;6.65;;;0.28;;
55210;SDS011;41082;52.822;6.666;2023-10-08T15:26:52;3.17;;;0.30;;
55210;SDS011;41082;52.822;6.666;2023-10-08T15:29:18;4.45;;;0.30;;
55210;SDS011;41082;52.822;6.666;2023-10-08T15:31:46;2.80;;;0.40;;
55210;SDS011;41082;52.822;6.666;2023-10-08T15:34:12;5.25;;;0.77;;